Cascade Township, Michigan
Current Conditions -  °F | °C
As of 6:53 PM on Monday 22 Dec 2014 (Local Time) from KGRR Reporting Station
Light Rain Light Rain  
Wind Chill: 26°   Ceiling: 3600
Heat Index: 35°   Visibility: 4mi
Dew Point: 32°   Wind: 15mph
Humidity: 89%   Direction: 90°E
Pressure: 29.84"   Gusts: NA
Location:  42.9365°N, 85.5426°W
Report Text: KGRR 222353Z 09013KT 4SM -RA BR OVC036 02/00 A2984 RMK AO2 SLP114 P0003 60008 T00170000 10028 20017 56008
Loading
Personal Weather Stations






























Interactive Weather Map New forecast layout! Learn more

10-Day Weather Forecast

Advertisements
Track Severe Weather on mobile